Time;durP1;ratioP1;P1;durP2;ratioP2;P2;SDS_P1;SDS_P2;PMS_P1;PMS_P2;Temp;Humidity;BMP_temperature;BMP_pressure;BME280_temperature;BME280_humidity;BME280_pressure;Samples;Min_cycle;Max_cycle;Signal;HPM_P1;HPM_P2
2021/08/11 00:00:18;;;;;;;20.03;13.23;;;;;;;16.66;76.33;101351.41;5077931;28;20165;-70
2021/08/11 00:02:43;;;;;;;18.50;15.37;;;;;;;16.33;77.08;101348.06;5078080;28;20485;-69
2021/08/11 00:05:09;;;;;;;16.47;14.57;;;;;;;16.49;76.60;101347.13;5078214;28;20548;-69
2021/08/11 00:07:35;;;;;;;14.80;13.30;;;;;;;16.36;77.31;101345.44;5078187;28;20446;-69
2021/08/11 00:10:00;;;;;;;16.00;14.37;;;;;;;16.35;76.67;101348.94;5078713;28;20402;-70
2021/08/11 00:12:26;;;;;;;14.30;12.90;;;;;;;16.59;75.84;101345.31;5078256;28;20509;-69
2021/08/11 00:14:51;;;;;;;16.47;14.77;;;;;;;16.49;76.31;101349.75;5077983;28;20181;-69
2021/08/11 00:17:17;;;;;;;15.50;13.90;;;;;;;16.19;77.43;101349.91;5078662;28;20255;-70
2021/08/11 00:19:43;;;;;;;16.17;14.47;;;;;;;16.38;76.94;101341.03;5077370;28;20260;-69
2021/08/11 00:22:08;;;;;;;15.77;14.10;;;;;;;16.15;77.27;101346.38;5078274;28;20480;-70
2021/08/11 00:24:33;;;;;;;16.20;14.60;;;;;;;16.47;76.02;101351.50;5077581;28;20316;-72
2021/08/11 00:26:58;;;;;;;16.57;14.80;;;;;;;16.18;77.25;101356.88;5078083;28;20187;-68
2021/08/11 00:29:24;;;;;;;16.60;14.90;;;;;;;16.14;77.41;101360.41;5078347;28;20187;-69
2021/08/11 00:31:49;;;;;;;17.60;15.30;;;;;;;16.11;77.12;101357.81;5077986;28;20558;-70
2021/08/11 00:34:15;;;;;;;15.97;14.33;;;;;;;15.95;78.36;101354.34;5072619;28;20165;-69
2021/08/11 00:36:41;;;;;;;15.80;14.20;;;;;;;16.17;77.10;101348.13;5058855;28;20187;-68
2021/08/11 00:39:06;;;;;;;15.93;14.33;;;;;;;16.09;77.12;101351.69;5057611;28;20435;-69
2021/08/11 00:41:31;;;;;;;14.90;13.40;;;;;;;16.14;77.02;101347.25;5058034;28;20246;-69
2021/08/11 00:43:59;;;;;;;17.20;13.57;;;;;;;16.00;77.28;101347.31;5061861;28;20192;-68
2021/08/11 00:46:25;;;;;;;15.50;13.47;;;;;;;16.19;76.60;101348.13;5061551;28;20176;-70
2021/08/11 00:48:50;;;;;;;18.10;15.67;;;;;;;16.20;76.33;101347.25;5061345;28;20481;-68
2021/08/11 00:51:15;;;;;;;17.03;14.80;;;;;;;16.00;77.17;101344.69;5061008;28;20197;-68
2021/08/11 00:53:41;;;;;;;16.63;14.90;;;;;;;15.92;77.75;101346.47;5061799;28;20564;-68
2021/08/11 00:56:07;;;;;;;18.87;15.40;;;;;;;15.96;77.65;101351.69;5061407;28;20192;-70
2021/08/11 00:58:34;;;;;;;16.63;14.93;;;;;;;16.00;76.95;101352.56;5061646;28;20210;-69
2021/08/11 01:01:01;;;;;;;15.73;13.63;;;;;;;16.08;76.73;101356.06;5061260;28;20416;-69
2021/08/11 01:03:28;;;;;;;17.70;15.63;;;;;;;16.15;76.92;101359.53;5061145;28;20431;-69
2021/08/11 01:05:59;;;;;;;16.93;15.00;;;;;;;16.06;77.08;101357.84;5061677;28;20495;-69
2021/08/11 01:08:26;;;;;;;17.07;15.33;;;;;;;16.04;77.15;101356.09;5060927;28;20427;-69
2021/08/11 01:10:51;;;;;;;16.83;15.10;;;;;;;16.03;77.18;101349.94;5061631;28;20471;-70
2021/08/11 01:13:17;;;;;;;18.50;16.10;;;;;;;16.18;76.34;101351.63;5061310;28;20663;-70
2021/08/11 01:15:46;;;;;;;16.80;15.10;;;;;;;16.09;76.86;101349.91;5060975;28;20224;-70
2021/08/11 01:18:16;;;;;;;20.67;17.10;;;;;;;16.26;76.24;101343.72;5060551;28;20180;-70
2021/08/11 01:20:47;;;;;;;17.77;14.50;;;;;;;15.81;77.94;101347.34;5061592;28;20727;-69
2021/08/11 01:23:13;;;;;;;18.57;16.57;;;;;;;15.97;77.24;101350.81;5060662;28;20456;-69
2021/08/11 01:25:41;;;;;;;22.13;17.30;;;;;;;15.81;77.65;101342.09;5060162;28;20652;-70
2021/08/11 01:28:37;;;;;;;17.87;16.00;;;;;;;15.90;77.51;101340.31;5061312;28;20402;-69
2021/08/11 01:31:30;;;;;;;18.83;15.67;;;;;;;15.87;77.65;101335.97;5060089;28;20778;-69
2021/08/11 01:34:02;;;;;;;22.17;16.00;;;;;;;15.74;77.89;101337.72;5062708;28;20446;-70
2021/08/11 01:36:33;;;;;;;19.43;17.40;;;;;;;15.91;77.54;101342.09;5080242;28;20442;-70
2021/08/11 01:39:13;;;;;;;19.53;16.83;;;;;;;15.83;77.44;101348.25;5080166;28;20484;-70
2021/08/11 01:41:54;;;;;;;20.60;18.40;;;;;;;15.76;77.90;101350.84;5080029;28;20381;-70
2021/08/11 01:44:22;;;;;;;20.03;18.03;;;;;;;15.71;78.23;101356.13;5066338;28;20422;-69
2021/08/11 01:46:48;;;;;;;20.67;17.57;;;;;;;15.73;78.10;101350.88;5059976;28;20395;-69
2021/08/11 01:49:14;;;;;;;18.97;16.97;;;;;;;15.75;77.68;101355.25;5059842;28;20491;-70
2021/08/11 01:51:46;;;;;;;22.33;17.00;;;;;;;15.75;77.80;101365.75;5060175;28;20871;-71
2021/08/11 01:54:12;;;;;;;21.47;19.07;;;;;;;15.59;78.33;101361.41;5058608;28;20181;-69
2021/08/11 01:56:41;;;;;;;23.00;19.60;;;;;;;15.72;77.50;101367.50;5060183;28;20394;-69
2021/08/11 01:59:07;;;;;;;19.87;17.77;;;;;;;15.63;78.46;101366.66;5059445;28;20387;-71
2021/08/11 02:01:37;;;;;;;19.67;17.67;;;;;;;15.30;79.09;101364.91;5059939;28;20427;-70
2021/08/11 02:04:03;;;;;;;21.93;18.73;;;;;;;15.45;78.92;101370.19;5060472;28;20767;-69
2021/08/11 02:06:29;;;;;;;20.60;18.30;;;;;;;15.63;78.16;101365.78;5059316;28;20426;-69
2021/08/11 02:08:56;;;;;;;21.03;18.83;;;;;;;15.42;78.47;101367.53;5059922;28;20527;-69
2021/08/11 02:11:22;;;;;;;24.07;19.70;;;;;;;15.60;78.58;101364.03;5059994;28;20243;-70
2021/08/11 02:13:47;;;;;;;22.30;18.60;;;;;;;15.43;78.26;101369.28;5059700;28;20507;-70
2021/08/11 02:16:12;;;;;;;23.37;18.00;;;;;;;15.48;78.35;101367.53;5059385;28;20543;-69
2021/08/11 02:18:38;;;;;;;19.97;17.73;;;;;;;15.53;78.36;101364.03;5060687;28;20193;-71
2021/08/11 02:21:03;;;;;;;21.83;18.43;;;;;;;15.81;77.03;101362.28;5059817;28;20197;-68
2021/08/11 02:23:29;;;;;;;23.53;19.37;;;;;;;15.73;77.22;101369.25;5059431;28;20261;-70
2021/08/11 02:26:03;;;;;;;20.87;18.20;;;;;;;15.51;77.97;101363.16;5060218;28;20170;-69
2021/08/11 02:28:33;;;;;;;21.63;19.00;;;;;;;15.57;77.95;101356.13;5059005;28;20165;-69
2021/08/11 02:31:04;;;;;;;21.70;19.30;;;;;;;15.75;77.03;101355.25;5058901;28;20445;-69
2021/08/11 02:33:35;;;;;;;21.17;18.93;;;;;;;15.82;76.89;101357.00;5058961;28;20791;-68
2021/08/11 02:36:04;;;;;;;23.47;19.30;;;;;;;15.76;77.02;101359.63;5063700;28;20715;-70
2021/08/11 02:38:39;;;;;;;20.20;18.00;;;;;;;15.64;77.43;101373.66;5058934;28;20419;-70
2021/08/11 02:41:10;;;;;;;25.40;20.23;;;;;;;15.62;77.22;101369.28;5059711;28;20405;-69
2021/08/11 02:43:51;;;;;;;26.63;20.20;;;;;;;15.73;77.05;101383.28;5058502;28;20391;-70
2021/08/11 02:46:19;;;;;;;27.07;20.80;;;;;;;15.78;76.97;101384.16;5059377;28;20553;-69
2021/08/11 02:48:50;;;;;;;24.17;21.67;;;;;;;15.55;78.21;101384.19;5058634;28;20379;-70
2021/08/11 02:51:15;;;;;;;24.97;21.20;;;;;;;15.71;77.27;101379.78;5059133;28;20468;-69
2021/08/11 02:53:41;;;;;;;24.33;20.83;;;;;;;15.52;77.79;101378.94;5058898;28;20419;-69
2021/08/11 02:56:06;;;;;;;28.73;20.40;;;;;;;15.33;79.00;101391.19;5059104;28;20180;-69
2021/08/11 02:58:32;;;;;;;25.40;21.87;;;;;;;15.40;78.64;101387.69;5059348;28;20443;-69
2021/08/11 03:00:58;;;;;;;27.40;21.80;;;;;;;15.43;78.24;101392.94;5058967;28;20512;-70
2021/08/11 03:03:24;;;;;;;26.47;22.07;;;;;;;15.33;78.99;101393.81;5058388;28;20193;-70
2021/08/11 03:05:49;;;;;;;26.17;22.33;;;;;;;15.41;78.57;101388.56;5057982;28;20394;-69
2021/08/11 03:08:15;;;;;;;25.93;21.87;;;;;;;15.30;78.40;101389.44;5060206;28;20178;-69
2021/08/11 03:10:41;;;;;;;26.03;21.10;;;;;;;15.24;78.91;101385.94;5058337;28;20173;-69
2021/08/11 03:13:09;;;;;;;27.87;21.77;;;;;;;15.29;79.04;101382.44;5059040;28;20398;-68
2021/08/11 03:15:35;;;;;;;28.17;21.17;;;;;;;15.11;80.03;101388.56;5058866;28;20201;-71
2021/08/11 03:18:00;;;;;;;24.60;21.37;;;;;;;14.92;79.73;101390.25;5058175;28;20687;-69
2021/08/11 03:20:26;;;;;;;24.13;21.20;;;;;;;15.27;78.91;101388.56;5058622;28;20411;-71
2021/08/11 03:22:51;;;;;;;30.33;21.37;;;;;;;15.72;77.07;101389.44;5058838;28;20225;-69
2021/08/11 03:25:16;;;;;;;25.00;20.80;;;;;;;15.46;77.43;101390.28;5059301;28;20173;-69
2021/08/11 03:27:42;;;;;;;26.43;22.07;;;;;;;15.32;78.12;101392.06;5058996;28;20427;-70
2021/08/11 03:30:07;;;;;;;26.20;22.30;;;;;;;15.25;78.50;101387.66;5058616;28;20192;-71
2021/08/11 03:32:33;;;;;;;28.07;22.03;;;;;;;15.32;77.68;101392.06;5058341;28;20258;-69
2021/08/11 03:34:58;;;;;;;27.23;21.43;;;;;;;15.38;77.89;101397.31;5069820;28;20183;-69
2021/08/11 03:37:24;;;;;;;24.10;21.20;;;;;;;15.24;78.32;101393.81;5078404;28;20169;-69
2021/08/11 03:39:49;;;;;;;28.47;22.30;;;;;;;15.30;78.36;101389.44;5078399;28;20173;-70
2021/08/11 03:42:14;;;;;;;26.07;20.90;;;;;;;15.35;77.99;101394.69;5077237;28;20400;-70
2021/08/11 03:44:40;;;;;;;26.50;20.60;;;;;;;15.35;77.61;101396.44;5058346;28;20204;-70
2021/08/11 03:47:05;;;;;;;31.33;21.33;;;;;;;15.34;77.74;101395.56;5058381;28;20177;-69
2021/08/11 03:49:31;;;;;;;26.50;21.57;;;;;;;15.33;78.03;101393.81;5058936;28;20177;-70
2021/08/11 03:51:56;;;;;;;24.30;21.80;;;;;;;15.37;77.68;101392.06;5058241;28;20278;-69
2021/08/11 03:54:21;;;;;;;27.07;24.23;;;;;;;15.21;78.42;101391.16;5058367;28;20197;-69
2021/08/11 03:56:47;;;;;;;29.40;25.27;;;;;;;15.16;78.62;101393.81;5058610;28;20185;-69
2021/08/11 03:59:12;;;;;;;30.77;27.60;;;;;;;15.28;78.42;101400.81;5058231;28;20271;-70
2021/08/11 04:01:37;;;;;;;29.80;26.80;;;;;;;15.31;78.24;101396.44;5077234;28;20197;-70
2021/08/11 04:04:03;;;;;;;29.53;26.43;;;;;;;15.44;77.36;101394.69;5078402;28;20165;-69
2021/08/11 04:06:28;;;;;;;30.10;26.97;;;;;;;15.37;77.89;101395.56;5077945;28;20183;-70
2021/08/11 04:08:53;;;;;;;30.57;27.40;;;;;;;15.51;76.94;101392.94;5077965;28;20601;-69
2021/08/11 04:11:19;;;;;;;29.63;26.40;;;;;;;15.29;78.07;101394.69;5078339;28;20242;-69
2021/08/11 04:13:44;;;;;;;25.10;22.47;;;;;;;15.32;77.88;101399.94;5077825;28;20173;-70
2021/08/11 04:16:09;;;;;;;25.57;22.87;;;;;;;15.36;77.56;101396.44;5077828;28;20562;-72
2021/08/11 04:18:34;;;;;;;26.07;23.40;;;;;;;15.21;77.72;101399.94;5081311;28;20283;-69
2021/08/11 04:21:00;;;;;;;26.50;22.90;;;;;;;15.39;77.05;101398.19;5081918;28;20182;-68
2021/08/11 04:23:27;;;;;;;29.80;23.30;;;;;;;15.60;76.66;101397.31;5081576;28;20232;-70
2021/08/11 04:25:52;;;;;;;26.03;23.23;;;;;;;15.57;76.86;101392.06;5082379;28;20169;-70
2021/08/11 04:28:17;;;;;;;29.60;22.83;;;;;;;15.42;77.16;101395.56;5081964;28;20419;-70
2021/08/11 04:30:43;;;;;;;28.00;21.97;;;;;;;15.65;76.49;101396.44;5081876;28;20234;-69
2021/08/11 04:33:08;;;;;;;26.90;21.57;;;;;;;15.89;75.83;101397.31;5081874;28;20180;-69
2021/08/11 04:35:37;;;;;;;22.97;20.00;;;;;;;16.73;73.25;101392.63;5065145;28;20612;-70
2021/08/11 04:38:02;;;;;;;19.50;17.60;;;;;;;17.33;70.36;101391.38;5061611;28;20169;-69
2021/08/11 04:40:27;;;;;;;18.20;16.40;;;;;;;18.15;66.86;101380.94;5062236;28;20408;-71
2021/08/11 04:42:53;;;;;;;17.33;15.50;;;;;;;18.48;65.77;101381.44;5064861;28;20466;-69
2021/08/11 04:45:18;;;;;;;16.93;15.23;;;;;;;19.02;64.17;101382.44;5073312;28;20180;-69
2021/08/11 04:47:43;;;;;;;15.80;14.20;;;;;;;19.77;61.20;101392.66;5081738;28;20179;-69
2021/08/11 04:50:09;;;;;;;15.10;13.63;;;;;;;19.88;60.79;101389.84;5063423;28;20192;-69
2021/08/11 04:52:34;;;;;;;14.83;13.43;;;;;;;20.00;60.41;101395.78;5081002;28;20213;-69
2021/08/11 04:55:04;;;;;;;15.73;14.07;;;;;;;20.25;58.74;101405.91;5081843;28;20494;-69
2021/08/11 04:57:29;;;;;;;14.90;13.50;;;;;;;19.97;59.77;101413.50;5081350;28;20245;-69
2021/08/11 04:59:54;;;;;;;15.77;14.27;;;;;;;20.13;59.68;101409.69;5081559;28;20450;-69
2021/08/11 05:02:19;;;;;;;16.33;14.60;;;;;;;19.68;59.99;101404.28;5063100;28;20195;-68
2021/08/11 05:04:45;;;;;;;16.40;14.70;;;;;;;20.06;59.31;101410.69;5061087;28;20546;-69
2021/08/11 05:07:10;;;;;;;14.13;12.93;;;;;;;19.76;60.56;101415.59;5061176;28;20197;-69
2021/08/11 05:09:35;;;;;;;14.07;12.60;;;;;;;20.16;59.28;101412.25;5061866;28;20251;-69
2021/08/11 05:12:01;;;;;;;14.23;12.93;;;;;;;18.83;63.31;101413.53;5078265;28;20220;-69
2021/08/11 05:14:27;;;;;;;14.20;12.73;;;;;;;18.12;65.91;101420.56;5086908;28;20527;-69
2021/08/11 05:16:53;;;;;;;14.47;13.07;;;;;;;17.64;67.98;101415.72;5080995;28;20176;-68
2021/08/11 05:19:18;;;;;;;15.97;14.30;;;;;;;17.65;67.58;101421.88;5081183;28;20410;-69
2021/08/11 05:21:43;;;;;;;15.40;14.00;;;;;;;17.53;68.33;101432.53;5080619;28;20263;-68
2021/08/11 05:24:11;;;;;;;17.43;15.63;;;;;;;17.43;69.46;101429.94;5080366;28;20271;-70
2021/08/11 05:26:36;;;;;;;15.10;13.60;;;;;;;16.76;71.70;101442.63;5067490;28;20189;-68
2021/08/11 05:29:01;;;;;;;17.63;15.80;;;;;;;17.36;69.90;101432.63;5074941;28;20435;-69
2021/08/11 05:31:29;;;;;;;16.63;15.03;;;;;;;17.34;69.71;101433.50;5100932;28;20287;-69
2021/08/11 05:33:54;;;;;;;15.60;14.10;;;;;;;19.05;64.21;101427.34;5085872;28;20250;-70
2021/08/11 05:36:19;;;;;;;15.20;13.70;;;;;;;20.49;58.80;101417.75;5072911;28;20423;-69
2021/08/11 05:38:45;;;;;;;13.40;12.20;;;;;;;21.87;54.49;101412.78;5074635;28;20203;-69
2021/08/11 05:41:10;;;;;;;13.97;12.63;;;;;;;22.75;51.81;101409.44;5080399;28;20230;-69
2021/08/11 05:43:36;;;;;;;13.00;11.80;;;;;;;22.12;53.34;101427.19;5080876;28;20169;-70
2021/08/11 05:46:01;;;;;;;13.40;12.13;;;;;;;21.74;54.00;101423.78;5080690;28;20177;-68
2021/08/11 05:48:27;;;;;;;12.77;11.27;;;;;;;23.02;51.17;101417.47;5080557;28;20184;-69
2021/08/11 05:50:52;;;;;;;11.93;10.73;;;;;;;23.04;50.99;101427.16;5068987;28;20193;-69
2021/08/11 05:53:18;;;;;;;12.13;10.97;;;;;;;23.88;48.68;101424.41;5062074;28;20210;-69
2021/08/11 05:55:43;;;;;;;11.73;10.47;;;;;;;24.31;47.09;101417.53;5061992;28;20188;-69
2021/08/11 05:58:11;;;;;;;11.53;10.43;;;;;;;25.00;46.37;101430.03;5060932;28;20205;-69
2021/08/11 06:00:36;;;;;;;12.43;11.27;;;;;;;24.60;46.51;101420.94;5068626;28;20425;-70
2021/08/11 06:03:03;;;;;;;11.60;10.70;;;;;;;24.85;46.33;101428.84;5073087;28;20438;-70
2021/08/11 06:05:28;;;;;;;11.67;10.30;;;;;;;25.38;44.54;101429.44;5061292;28;20181;-71
2021/08/11 06:07:54;;;;;;;11.10;10.10;;;;;;;24.51;46.81;101439.94;5067707;28;20848;-68
2021/08/11 06:10:19;;;;;;;11.23;10.10;;;;;;;25.27;45.62;101443.19;5078062;28;20201;-69
2021/08/11 06:12:47;;;;;;;11.73;10.53;;;;;;;24.67;46.50;101434.91;5077912;28;20479;-71
2021/08/11 06:15:12;;;;;;;10.83;9.73;;;;;;;24.79;46.62;101434.44;5079854;28;20215;-69
2021/08/11 06:17:45;;;;;;;10.67;9.77;;;;;;;25.42;44.81;101432.88;5079860;28;20712;-70
2021/08/11 06:20:11;;;;;;;11.00;9.90;;;;;;;26.01;43.63;101428.56;5080152;28;20177;-69
2021/08/11 06:22:37;;;;;;;9.93;9.03;;;;;;;26.09;42.81;101428.22;5077440;28;20411;-69
2021/08/11 06:25:03;;;;;;;11.53;10.37;;;;;;;24.61;46.98;101440.44;5068707;28;20442;-69
2021/08/11 06:27:29;;;;;;;11.60;10.40;;;;;;;25.35;45.26;101440.25;5065697;28;20523;-70
2021/08/11 06:29:54;;;;;;;10.73;9.50;;;;;;;25.21;45.29;101441.66;5079584;28;20518;-69
2021/08/11 06:32:20;;;;;;;10.80;9.80;;;;;;;26.62;42.60;101437.44;5079495;28;20204;-70
2021/08/11 06:34:45;;;;;;;11.40;10.20;;;;;;;25.65;44.48;101437.22;5079072;28;20519;-70
2021/08/11 06:37:11;;;;;;;9.70;8.70;;;;;;;26.49;43.09;101442.47;5066051;28;20591;-70
2021/08/11 06:39:36;;;;;;;9.90;8.67;;;;;;;26.66;42.49;101447.03;5062026;28;20216;-69
2021/08/11 06:42:02;;;;;;;10.10;9.07;;;;;;;25.62;44.22;101456.06;5059834;28;20405;-70
2021/08/11 06:44:27;;;;;;;9.67;8.77;;;;;;;25.42;44.91;101451.53;5059603;28;20184;-69
2021/08/11 06:46:53;;;;;;;10.27;9.30;;;;;;;25.52;44.64;101467.13;5085884;28;20195;-70
2021/08/11 06:49:18;;;;;;;9.47;8.40;;;;;;;27.13;41.23;101443.94;5090295;28;20226;-69
2021/08/11 06:51:44;;;;;;;13.20;8.97;;;;;;;26.19;42.92;101450.94;5078812;28;20235;-69
2021/08/11 06:54:11;;;;;;;9.73;8.17;;;;;;;26.73;41.52;101451.19;5092464;28;20202;-70
2021/08/11 06:56:37;;;;;;;9.70;8.90;;;;;;;26.62;41.99;101448.13;5064435;28;20177;-69
2021/08/11 06:59:03;;;;;;;10.13;8.90;;;;;;;26.43;42.59;101450.78;5058937;28;20470;-70
2021/08/11 07:01:28;;;;;;;9.63;8.67;;;;;;;26.99;41.87;101449.06;5066372;28;20183;-69
2021/08/11 07:03:54;;;;;;;11.20;8.73;;;;;;;26.20;42.57;101461.56;5099166;28;20168;-69
2021/08/11 07:06:19;;;;;;;8.70;8.00;;;;;;;27.52;40.67;101456.31;5098799;28;20230;-69
2021/08/11 07:08:45;;;;;;;9.70;8.80;;;;;;;26.88;41.99;101458.47;5066412;28;20205;-71
2021/08/11 07:11:10;;;;;;;8.47;7.67;;;;;;;27.51;40.59;101459.91;5067471;28;20303;-73
2021/08/11 07:13:36;;;;;;;9.50;7.90;;;;;;;27.91;39.84;101465.03;5075250;28;20182;-71
2021/08/11 07:16:02;;;;;;;9.17;8.33;;;;;;;27.28;40.65;101462.84;5074311;28;20614;-69
2021/08/11 07:18:28;;;;;;;8.13;7.43;;;;;;;27.70;39.61;101459.84;5045020;28;20177;-69
2021/08/11 07:20:53;;;;;;;11.43;7.40;;;;;;;28.10;39.45;101462.28;5077207;28;20211;-69
2021/08/11 07:23:19;;;;;;;8.20;7.47;;;;;;;27.30;40.17;101466.31;5073223;28;20497;-70
2021/08/11 07:25:44;;;;;;;7.83;7.23;;;;;;;27.96;39.18;101460.31;5075845;28;20220;-70
2021/08/11 07:28:10;;;;;;;7.90;7.20;;;;;;;28.27;38.93;101463.22;5077042;28;20195;-70
2021/08/11 07:30:36;;;;;;;7.80;7.10;;;;;;;27.59;40.41;101466.69;5061085;28;20189;-71
2021/08/11 07:33:03;;;;;;;8.53;7.60;;;;;;;27.77;39.34;101471.13;5059390;28;20268;-70
2021/08/11 07:35:29;;;;;;;9.40;8.50;;;;;;;29.19;38.53;101468.00;5059126;28;20451;-70
2021/08/11 07:37:55;;;;;;;8.10;7.37;;;;;;;28.47;38.73;101475.53;5058710;28;20499;-72
2021/08/11 07:40:24;;;;;;;8.00;7.30;;;;;;;28.80;38.07;101480.06;5078210;28;20261;-71
2021/08/11 07:42:50;;;;;;;7.53;6.93;;;;;;;28.69;38.63;101480.66;5064682;28;20442;-69
2021/08/11 07:45:17;;;;;;;7.37;6.67;;;;;;;28.18;39.39;101486.88;5064409;28;20838;-69
2021/08/11 07:47:47;;;;;;;7.87;7.07;;;;;;;27.34;41.42;101492.00;5064640;28;20447;-71
2021/08/11 07:50:13;;;;;;;8.40;7.50;;;;;;;28.68;39.92;101492.31;5061621;28;20510;-72
2021/08/11 07:52:38;;;;;;;8.37;7.60;;;;;;;29.01;37.73;101491.38;5068752;28;20477;-70
2021/08/11 07:55:04;;;;;;;8.53;7.10;;;;;;;28.74;38.50;101489.31;5089174;28;20447;-70
2021/08/11 07:57:30;;;;;;;7.40;6.80;;;;;;;30.01;37.00;101484.75;5061718;28;20234;-71
2021/08/11 07:59:55;;;;;;;8.30;7.50;;;;;;;28.52;38.70;101490.47;5062537;28;20544;-70
2021/08/11 08:02:21;;;;;;;8.67;6.87;;;;;;;29.37;36.73;101476.84;5063982;28;20493;-70
2021/08/11 08:04:46;;;;;;;9.73;7.00;;;;;;;27.73;40.75;101491.84;5061428;28;20211;-68
2021/08/11 08:07:12;;;;;;;7.27;6.67;;;;;;;29.38;37.44;101483.97;5057466;28;20193;-68
2021/08/11 08:09:38;;;;;;;8.20;6.67;;;;;;;29.31;37.23;101482.56;5067039;28;20197;-68
2021/08/11 08:12:04;;;;;;;7.33;6.70;;;;;;;29.07;37.77;101491.06;5063729;28;20239;-69
2021/08/11 08:14:29;;;;;;;8.13;6.80;;;;;;;28.66;38.28;101491.53;5057519;28;20185;-68
2021/08/11 08:16:55;;;;;;;7.40;6.70;;;;;;;26.74;42.07;101498.41;5064633;28;20450;-68
2021/08/11 08:19:20;;;;;;;21.07;7.53;;;;;;;25.48;45.60;101502.00;5062667;28;20215;-69
2021/08/11 08:21:46;;;;;;;8.73;7.23;;;;;;;26.45;42.98;101503.22;5057615;28;20557;-69
2021/08/11 08:24:11;;;;;;;8.53;6.93;;;;;;;26.21;42.04;101497.19;5063336;28;20244;-69
2021/08/11 08:26:37;;;;;;;9.77;7.70;;;;;;;26.91;42.28;101496.75;5076530;28;20441;-70
2021/08/11 08:29:03;;;;;;;8.67;7.17;;;;;;;27.70;40.65;101496.50;5069443;28;20617;-70
2021/08/11 08:31:28;;;;;;;7.00;6.37;;;;;;;30.18;35.34;101497.19;5077103;28;20254;-69
2021/08/11 08:33:54;;;;;;;7.00;6.40;;;;;;;29.46;36.50;101503.19;5061506;28;20448;-70
2021/08/11 08:36:20;;;;;;;9.40;6.80;;;;;;;27.42;40.48;101500.53;5064968;28;20510;-69
2021/08/11 08:38:45;;;;;;;6.63;6.13;;;;;;;26.77;41.72;101503.59;5058620;28;20200;-68
2021/08/11 08:41:11;;;;;;;7.73;6.80;;;;;;;25.16;45.94;101517.50;5059667;28;20184;-70
2021/08/11 08:43:37;;;;;;;8.07;7.33;;;;;;;24.12;48.87;101518.59;5057585;28;20178;-70
2021/08/11 08:46:03;;;;;;;6.97;6.37;;;;;;;23.94;50.51;101528.09;5057154;28;20444;-71
2021/08/11 08:48:29;;;;;;;8.20;7.40;;;;;;;23.30;50.64;101531.91;5061389;28;20459;-71
2021/08/11 08:50:55;;;;;;;8.83;8.00;;;;;;;23.93;49.63;101522.81;5056533;28;20189;-70
2021/08/11 08:53:22;;;;;;;9.30;6.90;;;;;;;26.07;44.31;101508.47;5065945;28;20432;-70
2021/08/11 08:55:48;;;;;;;8.20;6.17;;;;;;;27.66;39.68;101511.84;5077626;28;20415;-70
2021/08/11 08:58:13;;;;;;;7.07;6.37;;;;;;;26.57;41.86;101517.84;5071664;28;20561;-70
2021/08/11 09:00:39;;;;;;;6.63;6.03;;;;;;;25.02;44.70;101520.69;5057378;28;20515;-69
2021/08/11 09:03:05;;;;;;;7.73;6.10;;;;;;;23.80;46.64;101525.88;5059778;28;20280;-70
2021/08/11 09:05:31;;;;;;;6.30;5.40;;;;;;;25.55;43.29;101516.84;5079230;28;20194;-70
2021/08/11 09:07:57;;;;;;;8.60;6.70;;;;;;;28.05;37.61;101513.47;5074189;28;20491;-69
2021/08/11 09:10:27;;;;;;;6.23;5.63;;;;;;;27.73;38.77;101512.41;5066437;28;21056;-69
2021/08/11 09:12:54;;;;;;;6.93;5.90;;;;;;;28.67;36.99;101509.38;5068777;28;20208;-69
2021/08/11 09:15:37;;;;;;;6.93;6.20;;;;;;;28.60;37.03;101513.31;5066600;28;20447;-69
2021/08/11 09:18:28;;;;;;;6.80;5.47;;;;;;;28.58;37.01;101510.72;5069711;28;20435;-69
2021/08/11 09:21:01;;;;;;;5.90;5.40;;;;;;;28.14;37.08;101506.75;5070947;28;20486;-69
2021/08/11 09:23:41;;;;;;;6.10;5.50;;;;;;;29.51;34.99;101514.53;5068345;28;20478;-69
2021/08/11 09:26:08;;;;;;;5.87;5.00;;;;;;;28.76;36.26;101519.59;5060826;28;20694;-70
2021/08/11 09:28:35;;;;;;;7.10;5.00;;;;;;;29.30;35.18;101518.44;5065417;28;20459;-68
2021/08/11 09:31:01;;;;;;;5.90;5.40;;;;;;;29.10;35.70;101516.88;5066536;28;20896;-69
2021/08/11 09:33:26;;;;;;;5.60;5.10;;;;;;;29.47;35.11;101521.03;5076880;28;20461;-69
2021/08/11 09:35:53;;;;;;;6.70;5.47;;;;;;;29.20;35.52;101527.00;5063205;28;20276;-70
2021/08/11 09:38:19;;;;;;;5.73;5.23;;;;;;;28.18;37.22;101531.59;5060372;28;20186;-70
2021/08/11 09:40:45;;;;;;;7.70;5.50;;;;;;;25.88;42.69;101543.97;5075089;28;20465;-70
2021/08/11 09:43:16;;;;;;;6.83;5.83;;;;;;;25.73;43.99;101544.59;5067349;28;20465;-70
2021/08/11 09:45:44;;;;;;;9.67;7.00;;;;;;;25.30;45.28;101538.28;5077693;28;20446;-69
2021/08/11 09:48:09;;;;;;;6.17;5.57;;;;;;;26.38;41.22;101537.41;5069929;28;20465;-68
2021/08/11 09:50:46;;;;;;;6.40;5.77;;;;;;;25.78;41.53;101539.06;5059824;28;20518;-70
2021/08/11 09:53:32;;;;;;;6.27;5.67;;;;;;;27.94;37.58;101525.66;5077420;28;20191;-70
2021/08/11 09:56:05;;;;;;;5.93;5.10;;;;;;;28.51;35.51;101526.28;5077629;28;20474;-71
2021/08/11 09:58:31;;;;;;;5.63;5.13;;;;;;;29.50;33.88;101520.84;5067012;28;20457;-69
2021/08/11 10:00:57;;;;;;;5.47;4.97;;;;;;;29.51;34.58;101517.22;5059521;28;20474;-71
2021/08/11 10:03:22;;;;;;;5.33;4.83;;;;;;;26.99;35.97;101514.16;5066402;28;20443;-71
2021/08/11 10:05:49;;;;;;;5.53;5.00;;;;;;;27.86;36.39;101521.56;5063428;28;20182;-69
2021/08/11 10:08:26;;;;;;;4.80;4.40;;;;;;;29.95;33.08;101517.41;5062256;28;20189;-71
2021/08/11 10:10:51;;;;;;;4.83;4.37;;;;;;;28.43;35.49;101522.25;5063122;28;20665;-69
2021/08/11 10:13:18;;;;;;;5.63;4.70;;;;;;;27.05;39.80;101521.91;5058823;28;20431;-69
2021/08/11 10:15:45;;;;;;;6.40;5.03;;;;;;;26.80;38.91;101519.50;5057907;28;20188;-69
2021/08/11 10:18:11;;;;;;;4.80;4.40;;;;;;;25.59;41.57;101536.25;5058978;28;20447;-68
2021/08/11 10:20:37;;;;;;;7.00;5.20;;;;;;;25.05;42.57;101532.09;5059761;28;20447;-69
2021/08/11 10:23:04;;;;;;;5.50;4.90;;;;;;;25.19;42.79;101528.03;5058508;28;20853;-69
2021/08/11 10:25:29;;;;;;;5.63;5.13;;;;;;;24.78;43.76;101538.50;5058590;28;20423;-69
2021/08/11 10:27:55;;;;;;;5.40;4.93;;;;;;;24.78;43.65;101528.69;5066998;28;20844;-69
2021/08/11 10:30:20;;;;;;;6.83;5.10;;;;;;;26.15;41.39;101534.88;5068029;28;20180;-69
2021/08/11 10:32:46;;;;;;;4.80;4.40;;;;;;;27.56;38.45;101526.63;5069120;28;20598;-70
2021/08/11 10:35:11;;;;;;;5.60;5.10;;;;;;;28.76;37.13;101526.78;5066425;28;20188;-70
2021/08/11 10:37:36;;;;;;;5.27;4.60;;;;;;;28.17;38.41;101522.69;5069863;28;20268;-69
2021/08/11 10:40:03;;;;;;;5.20;4.77;;;;;;;28.37;37.77;101512.72;5059239;28;20246;-70
2021/08/11 10:42:28;;;;;;;5.60;5.10;;;;;;;28.60;36.89;101518.69;5059291;28;20272;-70
2021/08/11 10:44:59;;;;;;;6.90;5.07;;;;;;;28.88;36.33;101518.91;5060727;28;20538;-70
2021/08/11 10:47:30;;;;;;;7.73;4.60;;;;;;;29.04;36.51;101521.63;5057419;28;20188;-70
2021/08/11 10:50:03;;;;;;;6.00;4.37;;;;;;;30.10;33.39;101524.53;5067500;28;20450;-69
2021/08/11 10:52:29;;;;;;;4.83;4.00;;;;;;;29.24;34.26;101523.19;5073895;28;20479;-70
2021/08/11 10:55:00;;;;;;;4.37;3.97;;;;;;;30.43;32.84;101522.56;5078270;28;20871;-71
2021/08/11 10:57:34;;;;;;;3.90;3.50;;;;;;;28.69;35.06;101518.22;5073697;28;20776;-71
2021/08/11 11:00:09;;;;;;;4.57;4.17;;;;;;;29.27;35.26;101521.28;5067653;28;20437;-70
2021/08/11 11:02:40;;;;;;;4.30;3.93;;;;;;;29.18;35.63;101526.19;5073556;28;20414;-68
2021/08/11 11:05:07;;;;;;;4.80;4.40;;;;;;;29.82;34.09;101534.22;5062422;28;20453;-70
2021/08/11 11:07:32;;;;;;;4.47;4.13;;;;;;;29.49;34.60;101537.06;5078221;28;20866;-71
2021/08/11 11:10:34;;;;;;;6.23;5.70;;;;;;;28.33;35.78;101527.25;5068464;28;20431;-72
2021/08/11 11:13:00;;;;;;;7.67;7.03;;;;;;;28.55;36.25;101527.84;5064675;28;20326;-69
2021/08/11 11:15:40;;;;;;;15.47;14.27;;;;;;;28.40;37.12;101531.31;5062588;28;20448;-70